Time;durP1;ratioP1;P1;durP2;ratioP2;P2;SDS_P1;SDS_P2;PMS_P1;PMS_P2;Temp;Humidity;BMP_temperature;BMP_pressure;BME280_temperature;BME280_humidity;BME280_pressure;Samples;Min_cycle;Max_cycle;Signal;HPM_P1;HPM_P2
2022/12/01 00:01:47;;;;;;;33.53;15.90;;;7.20;1.00;;;;;;5077241;28;20416;-83
2022/12/01 00:07:34;;;;;;;29.00;14.00;;;7.10;1.00;;;;;;5083580;28;20577;-77
2022/12/01 00:13:22;;;;;;;31.27;13.30;;;7.00;1.00;;;;;;5078216;28;20178;-76
2022/12/01 00:22:31;;;;;;;38.30;17.17;;;7.00;1.00;;;;;;5081952;28;20404;-76
2022/12/01 00:25:23;;;;;;;39.23;17.33;;;7.10;1.00;;;;;;5090904;28;20848;-77
2022/12/01 00:27:50;;;;;;;34.53;15.70;;;7.00;1.00;;;;;;5090221;28;20243;-77
2022/12/01 00:33:38;;;;;;;31.80;13.30;;;7.00;1.00;;;;;;5092953;28;20533;-76
2022/12/01 00:43:03;;;;;;;40.87;16.47;;;7.00;1.00;;;;;;5089915;28;20889;-77
2022/12/01 00:48:50;;;;;;;39.53;17.33;;;6.90;1.00;;;;;;5085822;28;20432;-76
2022/12/01 00:51:59;;;;;;;32.73;13.93;;;6.90;1.00;;;;;;5083195;28;20412;-83
2022/12/01 00:58:06;;;;;;;38.97;17.63;;;6.90;1.00;;;;;;5089919;28;20826;-83
2022/12/01 01:03:53;;;;;;;43.57;17.67;;;6.80;1.00;;;;;;5075075;28;20429;-83
2022/12/01 01:06:47;;;;;;;39.20;17.10;;;6.80;1.00;;;;;;5093372;28;20488;-76
2022/12/01 01:16:02;;;;;;;45.27;17.73;;;6.80;1.00;;;;;;5088739;28;20405;-77
2022/12/01 01:25:36;;;;;;;44.43;17.20;;;6.70;1.00;;;;;;5075898;28;20420;-83
2022/12/01 01:28:41;;;;;;;35.80;15.03;;;6.60;1.00;;;;;;5077817;28;20453;-83
2022/12/01 01:31:10;;;;;;;44.73;18.93;;;6.70;1.00;;;;;;5092459;28;20937;-83
2022/12/01 01:36:57;;;;;;;46.33;17.63;;;6.80;1.00;;;;;;5079708;28;20408;-83
2022/12/01 01:39:53;;;;;;;42.80;16.50;;;6.70;1.00;;;;;;5095971;28;20377;-83
2022/12/01 01:42:29;;;;;;;40.83;16.87;;;6.70;1.00;;;;;;5074272;28;20218;-83
2022/12/01 01:48:16;;;;;;;38.67;17.17;;;6.70;1.00;;;;;;5077465;28;20421;-83
2022/12/01 01:51:22;;;;;;;41.47;17.83;;;6.70;1.00;;;;;;5086146;28;20416;-83
2022/12/01 02:01:19;;;;;;;40.53;17.30;;;6.70;1.00;;;;;;5082622;28;20392;-77
2022/12/01 02:07:46;;;;;;;40.80;17.47;;;6.70;1.00;;;;;;5087023;28;20475;-76
2022/12/01 02:10:21;;;;;;;37.90;16.97;;;6.80;1.00;;;;;;5082005;28;20421;-77
2022/12/01 02:12:53;;;;;;;49.43;15.07;;;6.80;1.00;;;;;;5078293;28;20404;-76
2022/12/01 02:19:05;;;;;;;36.43;16.77;;;6.80;1.00;;;;;;5075617;28;20462;-77
2022/12/01 02:25:18;;;;;;;35.60;15.80;;;6.80;1.00;;;;;;5080630;28;20482;-83
2022/12/01 02:28:35;;;;;;;33.37;14.43;;;6.70;1.00;;;;;;5085477;28;20457;-83
2022/12/01 02:37:47;;;;;;;35.93;16.93;;;6.70;1.00;;;;;;5074858;28;20443;-83
2022/12/01 02:40:20;;;;;;;39.30;17.80;;;6.80;1.00;;;;;;5073131;28;20889;-83
2022/12/01 02:43:25;;;;;;;37.90;16.80;;;6.70;1.00;;;;;;5082501;28;20420;-83
2022/12/01 02:49:19;;;;;;;32.20;13.10;;;6.70;1.00;;;;;;5074428;28;20876;-83
2022/12/01 02:52:13;;;;;;;33.90;14.43;;;6.70;1.00;;;;;;5086064;28;20427;-76
2022/12/01 02:54:47;;;;;;;36.40;15.47;;;6.70;1.00;;;;;;5090292;28;20445;-76
2022/12/01 02:57:47;;;;;;;36.70;16.20;;;6.80;1.00;;;;;;5073729;28;20421;-76
2022/12/01 03:03:46;;;;;;;43.53;16.57;;;6.80;1.00;;;;;;5078718;28;20474;-77
2022/12/01 03:10:17;;;;;;;42.20;16.17;;;6.70;1.00;;;;;;5074098;28;20485;-77
2022/12/01 03:13:29;;;;;;;38.83;14.90;;;6.70;1.00;;;;;;5087102;28;20420;-76
2022/12/01 03:16:19;;;;;;;47.00;14.70;;;6.70;1.00;;;;;;5073975;28;20382;-76
2022/12/01 03:19:14;;;;;;;43.47;17.07;;;6.80;1.00;;;;;;5073494;28;20390;-76
2022/12/01 03:22:17;;;;;;;36.10;15.10;;;6.70;1.00;;;;;;5075878;28;20424;-78
2022/12/01 03:24:55;;;;;;;39.57;16.67;;;6.60;1.00;;;;;;5090290;28;20974;-77
2022/12/01 03:27:42;;;;;;;38.23;17.23;;;6.60;1.00;;;;;;5072716;28;20460;-76
2022/12/01 03:30:12;;;;;;;42.90;18.13;;;6.60;1.00;;;;;;5073632;28;20439;-76
2022/12/01 03:33:17;;;;;;;37.50;17.87;;;6.50;1.00;;;;;;5089047;28;20932;-76
2022/12/01 03:39:10;;;;;;;36.93;17.27;;;6.60;1.00;;;;;;5083603;28;20441;-77
2022/12/01 03:41:42;;;;;;;37.47;15.37;;;6.70;1.00;;;;;;5090187;28;20413;-77
2022/12/01 03:44:17;;;;;;;41.10;17.63;;;6.60;1.00;;;;;;5086565;28;20432;-77
2022/12/01 03:47:19;;;;;;;40.23;17.50;;;6.60;1.00;;;;;;5079332;28;20452;-76
2022/12/01 03:50:17;;;;;;;38.53;17.43;;;6.60;1.00;;;;;;5076232;28;20907;-77
2022/12/01 03:56:06;;;;;;;40.07;18.40;;;6.60;1.00;;;;;;5080588;28;20393;-83
2022/12/01 03:58:49;;;;;;;36.83;17.43;;;6.60;1.00;;;;;;5074248;28;20413;-83
2022/12/01 04:01:47;;;;;;;35.30;15.13;;;6.60;1.00;;;;;;5090535;28;20439;-83
2022/12/01 04:04:14;;;;;;;39.70;17.70;;;6.60;1.00;;;;;;5091678;28;20488;-82
2022/12/01 04:10:02;;;;;;;36.40;17.90;;;6.50;1.00;;;;;;5085899;28;20396;-83
2022/12/01 04:12:58;;;;;;;40.40;16.63;;;6.40;1.00;;;;;;5073516;28;20751;-83
2022/12/01 04:16:17;;;;;;;38.77;17.47;;;6.40;1.00;;;;;;5076777;28;20469;-83
2022/12/01 04:19:17;;;;;;;37.90;18.50;;;6.40;1.00;;;;;;5082216;28;20424;-83
2022/12/01 04:22:23;;;;;;;40.77;18.17;;;6.40;1.00;;;;;;5071994;28;20944;-83
2022/12/01 04:28:23;;;;;;;39.77;18.27;;;6.40;1.00;;;;;;5074714;28;20514;-83
2022/12/01 04:34:47;;;;;;;36.07;16.33;;;6.40;1.00;;;;;;5076286;28;20809;-84
2022/12/01 04:37:32;;;;;;;34.03;17.80;;;6.40;1.00;;;;;;5073700;28;20420;-83
2022/12/01 04:40:53;;;;;;;36.67;17.47;;;6.40;1.00;;;;;;5093393;28;20444;-83
2022/12/01 04:44:05;;;;;;;39.07;17.83;;;6.40;1.00;;;;;;5081756;28;20424;-83
2022/12/01 04:46:47;;;;;;;37.03;17.13;;;6.40;1.00;;;;;;5091955;28;20514;-83
2022/12/01 04:53:17;;;;;;;38.57;18.97;;;6.40;1.00;;;;;;5089961;28;20469;-82
2022/12/01 04:59:04;;;;;;;38.57;17.47;;;6.40;1.00;;;;;;5075911;28;20428;-76
2022/12/01 05:01:47;;;;;;;41.10;18.07;;;6.40;1.00;;;;;;5075636;28;20457;-76
2022/12/01 05:04:47;;;;;;;41.77;18.47;;;6.40;1.00;;;;;;5076514;28;20682;-77
2022/12/01 05:07:35;;;;;;;45.37;14.37;;;6.40;1.00;;;;;;5092028;28;20505;-76
2022/12/01 05:17:17;;;;;;;38.60;18.37;;;6.40;1.00;;;;;;5084955;28;20409;-83
2022/12/01 05:23:36;;;;;;;42.03;18.23;;;6.40;1.00;;;;;;5076344;28;20432;-77
2022/12/01 05:26:41;;;;;;;43.10;17.20;;;6.40;1.00;;;;;;5082328;28;20415;-76
2022/12/01 05:29:07;;;;;;;43.63;19.30;;;6.30;1.00;;;;;;5075812;28;20429;-76
2022/12/01 05:31:33;;;;;;;42.60;18.00;;;6.40;1.00;;;;;;5083762;28;20954;-78
2022/12/01 05:34:11;;;;;;;37.23;18.17;;;6.60;1.00;;;;;;5076334;28;20420;-76
2022/12/01 05:37:11;;;;;;;35.73;17.07;;;6.40;1.00;;;;;;5081786;28;20431;-76
2022/12/01 05:40:17;;;;;;;36.00;16.93;;;6.40;1.00;;;;;;5082492;28;20429;-83
2022/12/01 05:43:23;;;;;;;38.20;17.90;;;6.40;1.00;;;;;;5092090;28;20783;-80
2022/12/01 05:46:17;;;;;;;41.67;16.63;;;6.40;1.00;;;;;;5080821;28;20434;-76
2022/12/01 05:48:47;;;;;;;39.07;16.80;;;6.40;1.00;;;;;;5092247;28;20412;-73
2022/12/01 05:51:29;;;;;;;34.93;17.13;;;6.40;1.00;;;;;;5091359;28;20876;-74
2022/12/01 05:53:59;;;;;;;38.97;14.33;;;6.40;1.00;;;;;;5083805;28;20416;-73
2022/12/01 05:56:35;;;;;;;37.00;16.70;;;6.40;1.00;;;;;;5080994;28;20743;-74
2022/12/01 05:59:01;;;;;;;34.93;16.47;;;6.40;1.00;;;;;;5076839;28;20969;-73
2022/12/01 06:01:27;;;;;;;34.73;14.60;;;6.30;1.00;;;;;;5088261;28;20428;-73
2022/12/01 06:03:54;;;;;;;34.93;15.03;;;6.30;1.00;;;;;;5087697;28;20291;-73
2022/12/01 06:06:19;;;;;;;30.83;15.37;;;6.30;1.00;;;;;;5075264;28;20651;-73
2022/12/01 06:08:47;;;;;;;29.20;16.17;;;6.30;1.00;;;;;;5086530;28;20420;-73
2022/12/01 06:11:17;;;;;;;29.73;14.23;;;6.30;1.00;;;;;;5087490;28;20648;-73
2022/12/01 06:13:43;;;;;;;34.60;15.10;;;6.30;1.00;;;;;;5075436;28;20401;-73
2022/12/01 06:16:11;;;;;;;32.07;15.50;;;6.30;1.00;;;;;;5077219;28;20405;-74
2022/12/01 06:18:38;;;;;;;28.70;14.30;;;6.20;1.00;;;;;;5085276;28;20175;-73
2022/12/01 06:21:06;;;;;;;34.63;16.50;;;6.20;1.00;;;;;;5080437;28;20969;-73
2022/12/01 06:23:32;;;;;;;34.07;15.80;;;6.20;1.00;;;;;;5079050;28;20471;-73
2022/12/01 06:25:59;;;;;;;27.17;12.43;;;6.20;1.00;;;;;;5074413;28;20877;-73
2022/12/01 06:28:25;;;;;;;28.17;12.67;;;6.10;1.00;;;;;;5083533;28;20499;-73
2022/12/01 06:31:11;;;;;;;28.03;14.87;;;6.10;1.00;;;;;;5079686;28;20552;-73
2022/12/01 06:33:41;;;;;;;30.43;14.77;;;6.10;1.00;;;;;;5082288;28;20179;-73
2022/12/01 06:36:09;;;;;;;29.30;11.90;;;6.10;1.00;;;;;;5082894;28;20891;-74
2022/12/01 06:38:35;;;;;;;26.60;12.30;;;6.10;1.00;;;;;;5080721;28;20405;-73
2022/12/01 06:41:02;;;;;;;26.80;13.37;;;6.10;1.00;;;;;;5074463;28;20894;-69
2022/12/01 06:43:28;;;;;;;30.43;14.53;;;6.10;1.00;;;;;;5087460;28;20495;-69
2022/12/01 06:45:54;;;;;;;30.60;14.50;;;6.20;1.00;;;;;;5075017;28;20503;-71
2022/12/01 06:48:23;;;;;;;34.33;14.40;;;6.10;1.00;;;;;;5087178;28;20424;-72
2022/12/01 06:51:00;;;;;;;26.37;13.30;;;6.20;1.00;;;;;;5074126;28;20170;-70
2022/12/01 06:53:30;;;;;;;24.60;12.80;;;6.10;1.00;;;;;;5092347;28;20474;-76
2022/12/01 06:56:02;;;;;;;27.77;12.00;;;6.10;1.00;;;;;;5087169;28;20903;-69
2022/12/01 06:58:30;;;;;;;26.13;14.13;;;6.00;1.00;;;;;;5073978;28;20425;-73
2022/12/01 07:00:57;;;;;;;26.50;13.50;;;6.00;1.00;;;;;;5083869;28;20420;-70
2022/12/01 07:03:23;;;;;;;25.10;13.00;;;6.00;1.00;;;;;;5088329;28;20449;-70
2022/12/01 07:05:57;;;;;;;28.73;13.40;;;6.00;1.00;;;;;;5078237;28;20464;-70
2022/12/01 07:08:23;;;;;;;27.87;13.50;;;6.00;1.00;;;;;;5080521;28;20422;-70
2022/12/01 07:11:03;;;;;;;26.27;12.97;;;6.00;1.00;;;;;;5091540;28;20749;-70
2022/12/01 07:13:30;;;;;;;26.60;13.40;;;6.00;1.00;;;;;;5074055;28;20427;-69
2022/12/01 07:15:56;;;;;;;25.93;12.63;;;6.00;1.00;;;;;;5086622;28;20451;-70
2022/12/01 07:18:22;;;;;;;26.07;12.87;;;6.00;1.00;;;;;;5075804;28;20475;-70
2022/12/01 07:20:48;;;;;;;26.00;12.90;;;6.00;1.00;;;;;;5081108;28;20932;-70
2022/12/01 07:23:13;;;;;;;24.83;10.53;;;6.00;1.00;;;;;;5073252;28;20525;-70
2022/12/01 07:25:39;;;;;;;25.87;11.50;;;5.90;1.00;;;;;;5076705;28;20178;-70
2022/12/01 07:28:05;;;;;;;26.33;13.90;;;6.00;1.00;;;;;;5075317;28;20198;-70
2022/12/01 07:30:30;;;;;;;31.30;14.23;;;6.00;1.00;;;;;;5078319;28;20556;-70
2022/12/01 07:32:56;;;;;;;27.23;13.07;;;6.00;1.00;;;;;;5073131;28;20167;-70
2022/12/01 07:35:22;;;;;;;25.67;13.60;;;6.00;1.00;;;;;;5073358;28;20197;-70
2022/12/01 07:37:55;;;;;;;28.27;13.17;;;6.00;1.00;;;;;;5075891;28;20175;-70
2022/12/01 07:40:21;;;;;;;28.07;13.57;;;6.00;1.00;;;;;;5081647;28;20198;-69
2022/12/01 07:42:47;;;;;;;26.60;13.27;;;6.10;1.00;;;;;;5080961;28;20428;-70
2022/12/01 07:45:13;;;;;;;31.70;14.23;;;6.00;1.00;;;;;;5075363;28;20959;-70
2022/12/01 07:47:38;;;;;;;25.50;12.60;;;6.10;1.00;;;;;;5083206;28;20202;-69
2022/12/01 07:50:05;;;;;;;24.17;12.53;;;6.00;1.00;;;;;;5079319;28;20495;-69
2022/12/01 07:52:31;;;;;;;27.17;13.83;;;6.00;1.00;;;;;;5082228;28;20449;-69
2022/12/01 07:54:57;;;;;;;24.90;13.80;;;6.00;1.00;;;;;;5076166;28;20842;-70
2022/12/01 07:57:23;;;;;;;29.03;12.30;;;5.90;1.00;;;;;;5074415;28;20512;-70
2022/12/01 08:03:42;;;;;;;20.87;11.00;;;5.80;1.00;;;;;;5074678;28;20969;-85
2022/12/01 08:06:18;;;;;;;28.90;12.30;;;5.80;1.00;;;;;;5086246;28;20416;-87
2022/12/01 08:12:17;;;;;;;28.17;12.50;;;5.80;1.00;;;;;;5081186;28;20495;-75
2022/12/01 08:14:59;;;;;;;25.30;12.93;;;5.80;1.00;;;;;;5089800;28;20417;-77
2022/12/01 08:17:25;;;;;;;24.03;12.30;;;5.80;1.00;;;;;;5079860;28;20412;-78
2022/12/01 08:23:47;;;;;;;20.33;11.57;;;5.70;1.00;;;;;;5093419;28;20644;-78
2022/12/01 08:26:41;;;;;;;23.23;11.90;;;5.80;1.00;;;;;;5097259;28;20427;-78
2022/12/01 08:29:07;;;;;;;22.93;12.17;;;5.80;1.00;;;;;;5076184;28;20522;-78
2022/12/01 08:31:36;;;;;;;23.33;12.43;;;5.80;1.00;;;;;;5080162;28;20408;-78
2022/12/01 08:34:06;;;;;;;24.40;12.27;;;5.90;1.00;;;;;;5089011;28;20422;-78
2022/12/01 08:43:15;;;;;;;26.27;13.57;;;6.00;1.00;;;;;;5098631;28;20474;-85
2022/12/01 08:49:47;;;;;;;20.13;11.27;;;6.20;1.00;;;;;;5090271;28;20185;-85
2022/12/01 08:58:56;;;;;;;25.70;12.43;;;6.50;1.00;;;;;;5081262;28;20411;-78
2022/12/01 09:01:24;;;;;;;22.93;12.77;;;6.50;1.00;;;;;;5074933;28;20421;-78
2022/12/01 09:07:13;;;;;;;25.90;12.07;;;6.70;1.00;;;;;;5086639;28;20472;-78
2022/12/01 09:10:26;;;;;;;24.37;12.13;;;6.80;1.00;;;;;;5074742;28;20416;-78
2022/12/01 09:12:51;;;;;;;23.40;12.67;;;6.90;1.00;;;;;;5083015;28;20987;-78
2022/12/01 09:18:39;;;;;;;19.40;9.97;;;7.00;1.00;;;;;;5092525;28;20195;-78
2022/12/01 09:25:13;;;;;;;21.70;11.37;;;7.20;1.00;;;;;;5073822;28;20404;-78
2022/12/01 09:28:29;;;;;;;19.77;9.10;;;7.30;1.00;;;;;;5081589;28;20453;-78
2022/12/01 09:31:23;;;;;;;20.30;10.90;;;7.40;1.00;;;;;;5039857;28;1118957;-78
2022/12/01 09:37:11;;;;;;;20.40;8.90;;;7.60;1.00;;;;;;5087094;28;20426;-78
2022/12/01 09:39:41;;;;;;;16.87;9.10;;;7.60;1.00;;;;;;5081747;28;20441;-78
2022/12/01 09:42:14;;;;;;;22.03;10.33;;;7.60;1.00;;;;;;5076062;28;20187;-86
2022/12/01 09:45:23;;;;;;;19.83;9.77;;;7.70;1.00;;;;;;5081113;28;20646;-85
2022/12/01 09:55:10;;;;;;;20.17;10.37;;;7.90;1.00;;;;;;5081702;28;20416;-85
2022/12/01 09:58:17;;;;;;;24.13;9.63;;;7.90;1.00;;;;;;5088248;28;20428;-77
2022/12/01 10:01:19;;;;;;;14.77;8.40;;;7.80;1.00;;;;;;5084899;28;20452;-78
2022/12/01 10:07:38;;;;;;;20.27;8.73;;;7.70;1.00;;;;;;5088500;28;20477;-78
2022/12/01 10:10:47;;;;;;;17.97;9.70;;;7.60;1.00;;;;;;5092207;28;20412;-77
2022/12/01 10:26:59;;;;;;;24.73;9.83;;;8.00;1.00;;;;;;5075245;28;20463;-79
2022/12/01 10:29:44;;;;;;;22.00;9.83;;;8.10;1.00;;;;;;5074084;28;20498;-78
2022/12/01 10:32:15;;;;;;;20.30;10.07;;;8.10;1.00;;;;;;5090952;28;20505;-77
2022/12/01 10:35:20;;;;;;;17.70;9.57;;;8.10;1.00;;;;;;5079861;28;20506;-77
2022/12/01 10:38:23;;;;;;;23.53;10.03;;;8.30;1.00;;;;;;5073968;28;20750;-77
2022/12/01 10:41:12;;;;;;;19.90;10.70;;;8.50;1.00;;;;;;5074014;28;20404;-78
2022/12/01 10:47:01;;;;;;;20.77;9.90;;;8.70;1.00;;;;;;5074287;28;20451;-83
2022/12/01 10:59:35;;;;;;;18.13;10.67;;;8.90;1.00;;;;;;5075240;28;20384;-85
2022/12/01 11:05:37;;;;;;;21.60;10.40;;;8.90;1.00;;;;;;5074636;28;20519;-86
2022/12/01 11:08:28;;;;;;;19.63;9.90;;;8.90;1.00;;;;;;5073423;28;20535;-85
2022/12/01 11:11:21;;;;;;;20.30;10.20;;;8.80;1.00;;;;;;5085754;28;20405;-85
2022/12/01 11:30:57;;;;;;;24.03;10.50;;;9.30;1.00;;;;;;5086544;28;20442;-77
2022/12/01 11:33:25;;;;;;;22.20;10.00;;;9.10;1.00;;;;;;5076301;28;20428;-77
2022/12/01 11:35:54;;;;;;;21.37;10.00;;;8.90;1.00;;;;;;5084851;28;20435;-77
2022/12/01 11:38:48;;;;;;;22.60;10.10;;;8.80;1.00;;;;;;5082962;28;20665;-77
2022/12/01 11:41:30;;;;;;;29.30;10.80;;;8.70;1.00;;;;;;5082907;28;20778;-76
2022/12/01 11:47:59;;;;;;;23.80;9.87;;;8.60;1.00;;;;;;5093676;28;20526;-84
2022/12/01 11:51:14;;;;;;;24.10;10.73;;;8.50;1.00;;;;;;5104207;28;20434;-85
2022/12/01 11:57:24;;;;;;;23.70;11.60;;;8.30;1.00;;;;;;4998724;28;20443;-84
2022/12/01 12:03:20;;;;;;;19.23;9.57;;;8.10;1.00;;;;;;5002839;28;20521;-84
2022/12/01 12:09:07;;;;;;;22.70;10.70;;;8.00;1.00;;;;;;5001963;28;20470;-84
2022/12/01 12:12:08;;;;;;;21.37;10.10;;;8.10;1.00;;;;;;5015903;28;20420;-85
2022/12/01 12:15:23;;;;;;;25.90;9.37;;;8.20;1.00;;;;;;4937869;29;20183;-76
2022/12/01 12:22:05;;;;;;;17.10;9.00;;;8.00;1.00;;;;;;4937161;29;20419;-76
2022/12/01 12:28:24;;;;;;;16.80;7.90;;;8.10;1.00;;;;;;4936913;29;20473;-78
2022/12/01 12:34:29;;;;;;;16.20;8.77;;;8.20;1.00;;;;;;5032405;28;20462;-76
2022/12/01 12:37:14;;;;;;;17.70;9.10;;;8.20;1.00;;;;;;5032313;28;20433;-69
2022/12/01 12:39:59;;;;;;;17.23;8.67;;;8.20;1.00;;;;;;5024745;28;20878;-68
2022/12/01 12:43:02;;;;;;;16.93;8.97;;;8.30;1.00;;;;;;5033954;28;20493;-80
2022/12/01 12:49:15;;;;;;;15.83;8.30;;;8.30;1.00;;;;;;5062637;28;20420;-77
2022/12/01 12:55:37;;;;;;;20.60;10.03;;;8.50;1.00;;;;;;5076602;28;20442;-77
2022/12/01 13:01:43;;;;;;;18.37;9.27;;;8.80;1.00;;;;;;5095149;28;20915;-80
2022/12/01 13:04:55;;;;;;;22.80;11.67;;;9.00;1.00;;;;;;5075992;28;20397;-82
2022/12/01 13:08:00;;;;;;;25.17;10.87;;;9.00;1.00;;;;;;5075530;28;20495;-84
2022/12/01 13:11:07;;;;;;;23.27;10.23;;;8.90;1.00;;;;;;5075524;28;20428;-86
2022/12/01 13:14:00;;;;;;;21.03;10.23;;;8.80;1.00;;;;;;5018518;28;20422;-86
2022/12/01 13:16:39;;;;;;;25.57;10.90;;;8.60;1.00;;;;;;5028137;28;21027;-82
2022/12/01 13:19:24;;;;;;;19.47;10.87;;;8.50;1.00;;;;;;5027193;28;20427;-85
2022/12/01 13:25:14;;;;;;;19.97;10.60;;;8.70;1.00;;;;;;5023868;28;20550;-86
2022/12/01 13:28:30;;;;;;;21.30;11.00;;;8.90;1.00;;;;;;5007545;28;20481;-82
2022/12/01 13:31:19;;;;;;;20.90;10.47;;;9.10;1.00;;;;;;5021652;28;20471;-82
2022/12/01 13:34:01;;;;;;;22.60;10.73;;;9.30;1.00;;;;;;5016345;28;20427;-83
2022/12/01 13:49:53;;;;;;;21.50;11.33;;;9.00;1.00;;;;;;5089404;28;20430;-86
2022/12/01 13:56:38;;;;;;;19.07;10.03;;;8.80;1.00;;;;;;5083660;28;20186;-86
2022/12/01 13:59:45;;;;;;;23.10;10.63;;;8.80;1.00;;;;;;5015980;28;20429;-76
2022/12/01 14:09:04;;;;;;;18.40;10.40;;;8.60;1.00;;;;;;5009218;28;20431;-78
2022/12/01 14:11:33;;;;;;;18.13;9.33;;;8.50;1.00;;;;;;5012508;28;20418;-79
2022/12/01 14:14:11;;;;;;;24.30;9.40;;;8.50;1.00;;;;;;4999436;28;20412;-73
2022/12/01 14:16:57;;;;;;;19.10;9.40;;;8.40;1.00;;;;;;5007172;28;20446;-72
2022/12/01 14:19:51;;;;;;;20.10;9.90;;;8.40;1.00;;;;;;5004738;28;20427;-73
2022/12/01 14:22:44;;;;;;;19.77;9.53;;;8.40;1.00;;;;;;5001222;28;20482;-73
2022/12/01 14:25:19;;;;;;;18.13;9.43;;;8.30;1.00;;;;;;5009284;28;20550;-73
2022/12/01 14:27:45;;;;;;;20.87;10.00;;;8.30;1.00;;;;;;5000531;28;20456;-73
2022/12/01 14:30:45;;;;;;;18.63;9.57;;;8.30;1.00;;;;;;5045106;28;20449;-73
2022/12/01 14:37:08;;;;;;;22.03;10.07;;;8.20;1.00;;;;;;5077260;28;20465;-75
2022/12/01 14:39:57;;;;;;;19.03;8.00;;;8.10;1.00;;;;;;5083704;28;20420;-75
2022/12/01 14:49:20;;;;;;;18.73;10.13;;;7.60;1.00;;;;;;5088187;28;21013;-74
2022/12/01 14:52:19;;;;;;;22.33;10.50;;;7.50;1.00;;;;;;5093904;28;20419;-73
2022/12/01 15:01:37;;;;;;;23.40;11.70;;;7.30;1.00;;;;;;5086763;28;20761;-73
2022/12/01 15:04:05;;;;;;;25.70;11.10;;;7.30;1.00;;;;;;5075473;28;20460;-73
2022/12/01 15:06:33;;;;;;;19.60;9.80;;;7.30;1.00;;;;;;5083194;28;20516;-72
2022/12/01 15:09:09;;;;;;;22.90;11.07;;;7.20;1.00;;;;;;5080107;28;20484;-72
2022/12/01 15:11:40;;;;;;;21.10;10.50;;;7.20;1.00;;;;;;5075483;28;20447;-73
2022/12/01 15:14:29;;;;;;;21.07;10.10;;;7.10;1.00;;;;;;5074549;28;20780;-72
2022/12/01 15:16:55;;;;;;;23.57;11.43;;;7.10;1.00;;;;;;5085750;28;20428;-75
2022/12/01 15:19:32;;;;;;;21.50;10.27;;;7.10;1.00;;;;;;5079701;28;20415;-72
2022/12/01 15:22:13;;;;;;;19.97;10.57;;;7.00;1.00;;;;;;5093216;28;20477;-72
2022/12/01 15:24:39;;;;;;;24.57;10.70;;;7.00;1.00;;;;;;5081317;28;20428;-72
2022/12/01 15:27:27;;;;;;;23.17;10.87;;;7.00;1.00;;;;;;5088527;28;20463;-71
2022/12/01 15:29:55;;;;;;;24.73;11.70;;;6.90;1.00;;;;;;5087498;28;20969;-73
2022/12/01 15:32:22;;;;;;;24.23;10.93;;;6.80;1.00;;;;;;5073788;28;20436;-75
2022/12/01 15:34:53;;;;;;;25.60;11.50;;;6.80;1.00;;;;;;5086692;28;20892;-74
2022/12/01 15:37:27;;;;;;;23.33;11.03;;;6.70;1.00;;;;;;5073274;28;20453;-73
2022/12/01 15:40:00;;;;;;;24.33;11.13;;;6.70;1.00;;;;;;5073148;28;20429;-73
2022/12/01 15:42:32;;;;;;;22.97;10.60;;;6.70;1.00;;;;;;5073872;28;20428;-73
2022/12/01 15:45:42;;;;;;;24.80;10.97;;;6.70;1.00;;;;;;5083053;28;20508;-73
2022/12/01 15:48:31;;;;;;;25.17;10.57;;;6.60;1.00;;;;;;5075583;28;20495;-73
2022/12/01 15:51:03;;;;;;;27.50;11.97;;;6.50;1.00;;;;;;5085390;28;20418;-72
2022/12/01 15:53:32;;;;;;;24.03;11.97;;;6.50;1.00;;;;;;5086088;28;20943;-73
2022/12/01 15:56:00;;;;;;;24.17;10.70;;;6.50;1.00;;;;;;5073153;28;20445;-72
2022/12/01 15:58:45;;;;;;;23.60;11.37;;;6.50;1.00;;;;;;5079771;28;20510;-72
2022/12/01 16:05:10;;;;;;;26.80;12.40;;;6.50;1.00;;;;;;5072995;28;20411;-78
2022/12/01 16:11:14;;;;;;;24.37;11.93;;;6.40;1.00;;;;;;5072922;28;20427;-78
2022/12/01 16:17:07;;;;;;;24.83;12.87;;;6.30;1.00;;;;;;5073941;28;20423;-78
2022/12/01 16:23:08;;;;;;;25.47;12.83;;;6.20;1.00;;;;;;5075464;28;20404;-78
2022/12/01 16:26:07;;;;;;;24.43;12.33;;;6.30;1.00;;;;;;5075951;28;20429;-78
2022/12/01 16:28:42;;;;;;;25.20;13.53;;;6.20;1.00;;;;;;5102913;28;20479;-78
2022/12/01 16:31:26;;;;;;;24.70;12.97;;;6.20;1.00;;;;;;5100470;28;20783;-77
2022/12/01 16:34:02;;;;;;;24.23;12.67;;;6.20;1.00;;;;;;5082063;28;20431;-77
2022/12/01 16:37:12;;;;;;;31.97;14.57;;;6.20;1.00;;;;;;5081086;28;21213;-77
2022/12/01 16:39:55;;;;;;;30.87;13.13;;;6.20;1.00;;;;;;5081820;28;20778;-77
2022/12/01 16:42:31;;;;;;;30.90;13.83;;;6.20;1.00;;;;;;5076321;28;20947;-76
2022/12/01 16:45:12;;;;;;;26.70;13.63;;;6.20;1.00;;;;;;5076184;28;20794;-77
2022/12/01 16:48:24;;;;;;;28.80;14.03;;;6.10;1.00;;;;;;5083035;28;20463;-85
2022/12/01 16:57:34;;;;;;;28.97;14.87;;;6.10;1.00;;;;;;5076947;28;20373;-87
2022/12/01 17:00:51;;;;;;;32.43;14.47;;;6.00;1.00;;;;;;5086763;28;20424;-87
2022/12/01 17:06:39;;;;;;;36.80;15.33;;;6.00;1.00;;;;;;5096925;28;20403;-87
2022/12/01 17:15:50;;;;;;;29.90;14.47;;;5.90;1.00;;;;;;5078344;28;20427;-86
2022/12/01 17:18:49;;;;;;;26.20;14.43;;;6.00;1.00;;;;;;5088526;28;20841;-81
2022/12/01 17:21:55;;;;;;;32.60;15.90;;;6.00;1.00;;;;;;5099065;28;20518;-77
2022/12/01 17:27:55;;;;;;;29.30;14.50;;;5.90;1.00;;;;;;5088759;28;20535;-78
2022/12/01 17:33:55;;;;;;;35.33;16.67;;;5.90;1.00;;;;;;5082224;28;20435;-85
2022/12/01 17:39:43;;;;;;;33.50;16.37;;;5.90;1.00;;;;;;5088352;28;20910;-82
2022/12/01 17:52:37;;;;;;;31.23;15.93;;;5.80;1.00;;;;;;5082617;28;20396;-85
2022/12/01 17:58:24;;;;;;;37.40;15.77;;;5.70;1.00;;;;;;5082132;28;20485;-82
2022/12/01 18:07:34;;;;;;;37.03;16.00;;;5.70;1.00;;;;;;5079502;28;20848;-78
2022/12/01 18:14:01;;;;;;;39.47;17.50;;;5.60;1.00;;;;;;5090338;28;20189;-77
2022/12/01 18:23:11;;;;;;;41.17;17.60;;;5.60;1.00;;;;;;5083773;28;20803;-83
2022/12/01 18:25:43;;;;;;;37.73;17.80;;;5.70;1.00;;;;;;5076624;28;20417;-84
2022/12/01 18:28:43;;;;;;;37.30;17.33;;;5.70;1.00;;;;;;5073915;28;20476;-85
2022/12/01 18:31:12;;;;;;;41.30;17.60;;;5.60;1.00;;;;;;5089656;28;20807;-85
2022/12/01 18:33:39;;;;;;;35.07;16.60;;;5.70;1.00;;;;;;5092395;28;20412;-75
2022/12/01 18:36:16;;;;;;;43.33;17.87;;;5.80;1.00;;;;;;5085418;28;20408;-75
2022/12/01 18:39:25;;;;;;;31.83;16.00;;;5.80;1.00;;;;;;5094451;28;20393;-76
2022/12/01 18:41:50;;;;;;;37.57;16.60;;;5.80;1.00;;;;;;5090874;28;20424;-75
2022/12/01 18:44:43;;;;;;;38.00;16.83;;;5.80;1.00;;;;;;5074138;28;20429;-76
2022/12/01 18:47:09;;;;;;;33.93;15.37;;;5.80;1.00;;;;;;5074868;28;20465;-76
2022/12/01 18:49:43;;;;;;;35.50;16.33;;;5.80;1.00;;;;;;5078541;28;20424;-76
2022/12/01 18:52:13;;;;;;;34.17;16.63;;;5.90;1.00;;;;;;5087373;28;20209;-76
2022/12/01 18:54:50;;;;;;;41.33;17.37;;;5.80;1.00;;;;;;5081837;28;20765;-76
2022/12/01 18:57:17;;;;;;;37.40;16.43;;;5.80;1.00;;;;;;5085131;28;20420;-75
2022/12/01 18:59:49;;;;;;;36.83;16.77;;;5.80;1.00;;;;;;5093725;28;20413;-75
2022/12/01 19:02:19;;;;;;;36.17;16.50;;;5.80;1.00;;;;;;5093967;28;20388;-75
2022/12/01 19:05:07;;;;;;;35.20;17.07;;;5.70;1.00;;;;;;5095039;28;20393;-85
2022/12/01 19:14:18;;;;;;;39.40;17.90;;;5.80;1.00;;;;;;5073842;28;20414;-83
2022/12/01 19:16:55;;;;;;;38.07;16.10;;;5.80;1.00;;;;;;5074376;28;20485;-84
2022/12/01 19:22:55;;;;;;;41.13;16.37;;;5.80;1.00;;;;;;5080987;28;20451;-85
2022/12/01 19:26:00;;;;;;;39.60;17.40;;;5.90;1.00;;;;;;5086451;28;20935;-85
2022/12/01 19:28:44;;;;;;;33.37;16.67;;;5.90;1.00;;;;;;5083771;28;20464;-86
2022/12/01 19:31:15;;;;;;;36.77;16.30;;;5.90;1.00;;;;;;5087850;28;20444;-86
2022/12/01 19:33:55;;;;;;;34.93;16.30;;;5.90;1.00;;;;;;5090515;28;20918;-77
2022/12/01 19:36:51;;;;;;;46.23;16.87;;;5.90;1.00;;;;;;5087503;28;20404;-77
2022/12/01 19:42:39;;;;;;;36.20;15.90;;;5.90;1.00;;;;;;5081018;28;20423;-76
2022/12/01 19:45:32;;;;;;;38.17;16.30;;;5.80;1.00;;;;;;5082031;28;20425;-76
2022/12/01 19:51:25;;;;;;;41.77;17.83;;;5.90;1.00;;;;;;5080554;28;20449;-85
2022/12/01 19:54:06;;;;;;;40.23;18.00;;;5.90;1.00;;;;;;5080115;28;20819;-85
2022/12/01 20:00:25;;;;;;;40.73;17.37;;;5.80;1.00;;;;;;5091381;28;20442;-85
2022/12/01 20:03:31;;;;;;;41.43;17.87;;;5.80;1.00;;;;;;5088743;28;20435;-85
2022/12/01 20:10:13;;;;;;;37.93;15.70;;;5.80;1.00;;;;;;5081146;28;20432;-76
2022/12/01 20:16:06;;;;;;;43.33;18.90;;;5.80;1.00;;;;;;5084588;28;20383;-76
2022/12/01 20:18:32;;;;;;;42.83;18.53;;;5.80;1.00;;;;;;5089873;28;20420;-76
2022/12/01 20:24:25;;;;;;;38.30;16.70;;;5.80;1.00;;;;;;5078951;28;20408;-76
2022/12/01 20:27:13;;;;;;;37.37;16.20;;;5.90;1.00;;;;;;5082393;28;20457;-76
2022/12/01 20:29:39;;;;;;;41.27;17.40;;;5.90;1.00;;;;;;5078859;28;20454;-76
2022/12/01 20:32:37;;;;;;;37.10;16.93;;;5.80;1.00;;;;;;5089304;28;20429;-76
2022/12/01 20:35:08;;;;;;;37.73;16.83;;;5.80;1.00;;;;;;5090770;28;20417;-76
2022/12/01 20:37:43;;;;;;;39.17;17.73;;;5.70;1.00;;;;;;5076977;28;20930;-76
2022/12/01 20:40:10;;;;;;;43.93;18.20;;;5.70;1.00;;;;;;5082289;28;20427;-76
2022/12/01 20:42:49;;;;;;;40.30;18.70;;;5.70;1.00;;;;;;5095033;28;20844;-76